Time;durP1;ratioP1;P1;durP2;ratioP2;P2;SDS_P1;SDS_P2;PMS_P1;PMS_P2;Temp;Humidity;BMP_temperature;BMP_pressure;BME280_temperature;BME280_humidity;BME280_pressure;Samples;Min_cycle;Max_cycle;Signal;HPM_P1;HPM_P2
2023/09/03 00:00:38;;;;;;;8.87;8.17;;;21.50;99.90;;;;;;5002574;28;21355;-60
2023/09/03 00:03:05;;;;;;;9.00;8.30;;;21.50;99.90;;;;;;5004634;28;20467;-58
2023/09/03 00:05:32;;;;;;;7.53;6.93;;;21.50;99.90;;;;;;5004903;28;20483;-59
2023/09/03 00:07:59;;;;;;;6.73;6.13;;;21.50;99.90;;;;;;5005865;28;20780;-57
2023/09/03 00:10:26;;;;;;;8.50;7.80;;;21.40;99.90;;;;;;5006630;28;20482;-60
2023/09/03 00:12:52;;;;;;;8.57;7.80;;;21.40;99.90;;;;;;5003175;28;20459;-59
2023/09/03 00:15:23;;;;;;;8.07;7.37;;;21.40;99.90;;;;;;5004467;28;20447;-61
2023/09/03 00:17:51;;;;;;;7.77;7.00;;;21.40;99.90;;;;;;5004039;28;20455;-58
2023/09/03 00:20:18;;;;;;;8.77;7.97;;;21.40;99.90;;;;;;5002518;28;20490;-61
2023/09/03 00:22:44;;;;;;;8.70;8.00;;;21.40;99.90;;;;;;5003271;28;20490;-60
2023/09/03 00:25:11;;;;;;;8.38;7.68;;;21.40;99.90;;;;;;5004256;28;20912;-60
2023/09/03 00:27:38;;;;;;;7.70;7.10;;;21.40;99.90;;;;;;5006309;28;20192;-61
2023/09/03 00:30:05;;;;;;;8.07;7.37;;;21.40;99.90;;;;;;5013082;28;20452;-59
2023/09/03 00:32:33;;;;;;;7.90;7.20;;;21.40;99.90;;;;;;5012362;28;20862;-58
2023/09/03 00:35:00;;;;;;;7.93;7.33;;;21.40;99.90;;;;;;5007312;28;20470;-60
2023/09/03 00:37:27;;;;;;;8.43;7.72;;;21.40;99.90;;;;;;5011044;28;20476;-58
2023/09/03 00:39:53;;;;;;;7.30;6.70;;;21.40;99.90;;;;;;5014493;28;20555;-59
2023/09/03 00:42:20;;;;;;;7.70;7.00;;;21.40;99.90;;;;;;5012505;28;20457;-56
2023/09/03 00:44:47;;;;;;;6.30;5.87;;;21.40;99.90;;;;;;5017309;28;20475;-58
2023/09/03 00:47:14;;;;;;;7.80;7.10;;;21.40;99.90;;;;;;5015654;28;20463;-61
2023/09/03 00:49:44;;;;;;;7.00;6.40;;;21.40;99.90;;;;;;5015815;28;20457;-61
2023/09/03 00:52:11;;;;;;;8.30;7.50;;;21.40;99.90;;;;;;5009360;28;20970;-60
2023/09/03 00:54:38;;;;;;;8.63;7.93;;;21.40;99.90;;;;;;5014000;28;20981;-62
2023/09/03 00:57:05;;;;;;;7.30;6.70;;;21.40;99.90;;;;;;5012309;28;20469;-61
2023/09/03 00:59:33;;;;;;;7.57;6.97;;;21.40;99.90;;;;;;5016190;28;20458;-61
2023/09/03 01:01:59;;;;;;;7.03;6.33;;;21.40;99.90;;;;;;5015393;28;20474;-60
2023/09/03 01:04:26;;;;;;;7.47;6.87;;;21.40;99.90;;;;;;5015601;28;20458;-59
2023/09/03 01:06:54;;;;;;;7.30;6.70;;;21.40;99.90;;;;;;5011584;28;20470;-60
2023/09/03 01:09:21;;;;;;;8.37;7.67;;;21.40;99.90;;;;;;5013863;28;20455;-61
2023/09/03 01:11:58;;;;;;;7.53;6.83;;;21.40;99.90;;;;;;5013062;28;20461;-60
2023/09/03 01:14:33;;;;;;;7.70;7.10;;;21.40;99.90;;;;;;5014318;28;20446;-59
2023/09/03 01:17:06;;;;;;;8.20;7.50;;;21.40;99.90;;;;;;5013529;28;20460;-60
2023/09/03 01:19:56;;;;;;;7.27;6.70;;;21.40;99.90;;;;;;5016526;28;20464;-61
2023/09/03 01:22:37;;;;;;;7.97;7.30;;;21.40;99.90;;;;;;5009388;28;20482;-58
2023/09/03 01:25:19;;;;;;;7.47;6.87;;;21.40;99.90;;;;;;5013828;28;20795;-60
2023/09/03 01:27:58;;;;;;;8.07;7.33;;;21.40;99.90;;;;;;5012909;28;20470;-61
2023/09/03 01:30:27;;;;;;;7.20;6.60;;;21.30;99.90;;;;;;5014531;28;20454;-61
2023/09/03 01:32:54;;;;;;;7.70;7.00;;;21.30;99.90;;;;;;5014380;28;20480;-61
2023/09/03 01:35:23;;;;;;;7.40;6.80;;;21.30;99.90;;;;;;5013389;28;20471;-58
2023/09/03 01:37:49;;;;;;;7.23;6.53;;;21.30;99.90;;;;;;5014197;28;20481;-61
2023/09/03 01:40:16;;;;;;;7.95;7.35;;;21.30;99.90;;;;;;5015773;28;20966;-60
2023/09/03 01:42:43;;;;;;;6.73;6.13;;;21.30;99.90;;;;;;5011826;28;20199;-60
2023/09/03 01:45:10;;;;;;;7.43;6.83;;;21.30;99.90;;;;;;5012967;28;20462;-58
2023/09/03 01:47:44;;;;;;;7.57;6.97;;;21.30;99.90;;;;;;5013223;28;20454;-61
2023/09/03 01:50:18;;;;;;;6.80;6.30;;;21.30;99.90;;;;;;5014745;28;20453;-61
2023/09/03 01:52:56;;;;;;;6.93;6.43;;;21.30;99.90;;;;;;5012847;28;20493;-59
2023/09/03 01:55:26;;;;;;;7.37;6.77;;;21.30;99.90;;;;;;5014234;28;20963;-60
2023/09/03 01:57:57;;;;;;;8.02;7.32;;;21.30;99.90;;;;;;5007955;28;20463;-58
2023/09/03 02:00:24;;;;;;;8.30;7.60;;;21.30;99.90;;;;;;5013057;28;20204;-61
2023/09/03 02:02:52;;;;;;;6.97;6.47;;;21.30;99.90;;;;;;5008917;28;20474;-60
2023/09/03 02:05:19;;;;;;;7.20;6.60;;;21.30;99.90;;;;;;5012848;28;20472;-60
2023/09/03 02:07:46;;;;;;;7.43;6.83;;;21.30;99.90;;;;;;5011082;28;20464;-57
2023/09/03 02:10:13;;;;;;;7.40;6.80;;;21.30;99.90;;;;;;5012187;28;20959;-60
2023/09/03 02:12:39;;;;;;;6.53;5.93;;;21.30;99.90;;;;;;5008916;28;20462;-62
2023/09/03 02:15:07;;;;;;;8.15;7.50;;;21.30;99.90;;;;;;5016089;28;20458;-60
2023/09/03 02:17:34;;;;;;;6.60;6.07;;;21.30;99.90;;;;;;5010071;28;20294;-60
2023/09/03 02:20:02;;;;;;;6.83;6.33;;;21.30;99.90;;;;;;5009469;28;20817;-61
2023/09/03 02:22:29;;;;;;;6.38;5.88;;;21.30;99.90;;;;;;5008526;28;20490;-61
2023/09/03 02:24:56;;;;;;;8.03;7.33;;;21.30;99.90;;;;;;5014016;28;20689;-58
2023/09/03 02:27:22;;;;;;;7.60;7.00;;;21.30;99.90;;;;;;5013651;28;20462;-58
2023/09/03 02:29:49;;;;;;;6.83;6.27;;;21.30;99.90;;;;;;5012416;28;20473;-62
2023/09/03 02:32:16;;;;;;;7.13;6.60;;;21.30;99.90;;;;;;5011151;28;20466;-59
2023/09/03 02:34:43;;;;;;;6.90;6.40;;;21.30;99.90;;;;;;5009084;28;20478;-60
2023/09/03 02:37:11;;;;;;;7.93;7.33;;;21.30;99.90;;;;;;5004334;28;20476;-60
2023/09/03 02:39:37;;;;;;;7.23;6.63;;;21.30;99.90;;;;;;5015922;28;20792;-60
2023/09/03 02:42:05;;;;;;;7.20;6.70;;;21.30;99.90;;;;;;5011495;28;21006;-61
2023/09/03 02:44:31;;;;;;;7.90;7.20;;;21.30;99.90;;;;;;5009615;28;20460;-60
2023/09/03 02:46:58;;;;;;;6.10;5.60;;;21.30;99.90;;;;;;5017452;28;21048;-59
2023/09/03 02:49:25;;;;;;;7.00;6.50;;;21.30;99.90;;;;;;5014391;28;20943;-59
2023/09/03 02:51:51;;;;;;;6.90;6.40;;;21.30;99.90;;;;;;5009378;28;20466;-60
2023/09/03 02:54:19;;;;;;;6.90;6.30;;;21.30;99.90;;;;;;5016137;28;20969;-61
2023/09/03 02:56:46;;;;;;;6.88;6.35;;;21.30;99.90;;;;;;5013500;28;20477;-59
2023/09/03 02:59:13;;;;;;;6.60;6.00;;;21.30;99.90;;;;;;5015586;28;20356;-58
2023/09/03 03:01:40;;;;;;;7.47;6.87;;;21.30;99.90;;;;;;5016946;28;20474;-62
2023/09/03 03:04:06;;;;;;;6.20;5.70;;;21.30;99.90;;;;;;5011513;28;20461;-61
2023/09/03 03:06:33;;;;;;;6.50;6.00;;;21.30;99.90;;;;;;5016100;28;20886;-59
2023/09/03 03:09:00;;;;;;;7.53;6.93;;;21.30;99.90;;;;;;5012814;28;20484;-58
2023/09/03 03:11:28;;;;;;;7.80;7.10;;;21.20;99.90;;;;;;5015604;28;20469;-59
2023/09/03 03:13:54;;;;;;;6.78;6.18;;;21.20;99.90;;;;;;5007956;28;20467;-60
2023/09/03 03:16:21;;;;;;;7.57;6.97;;;21.30;99.90;;;;;;5013278;28;20568;-60
2023/09/03 03:18:48;;;;;;;7.20;6.60;;;21.20;99.90;;;;;;5012312;28;20877;-60
2023/09/03 03:21:17;;;;;;;6.90;6.30;;;21.20;99.90;;;;;;5013954;28;20478;-58
2023/09/03 03:23:47;;;;;;;6.87;6.30;;;21.20;99.90;;;;;;5014550;28;20477;-60
2023/09/03 03:26:14;;;;;;;6.60;6.03;;;21.20;99.90;;;;;;5010721;28;20922;-60
2023/09/03 03:28:42;;;;;;;6.07;5.57;;;21.20;99.90;;;;;;5012199;28;20454;-61
2023/09/03 03:31:10;;;;;;;6.57;6.07;;;21.20;99.90;;;;;;5012810;28;20448;-59
2023/09/03 03:33:37;;;;;;;7.37;6.77;;;21.20;99.90;;;;;;5004496;28;20514;-57
2023/09/03 03:36:04;;;;;;;7.07;6.37;;;21.30;99.90;;;;;;5001477;28;21210;-59
2023/09/03 03:38:31;;;;;;;6.40;5.90;;;21.20;99.90;;;;;;5009087;28;21213;-60
2023/09/03 03:41:07;;;;;;;7.03;6.50;;;21.20;99.90;;;;;;5008663;28;20809;-61
2023/09/03 03:43:34;;;;;;;6.10;5.60;;;21.20;99.90;;;;;;5005171;28;20455;-60
2023/09/03 03:46:02;;;;;;;6.97;6.47;;;21.20;99.90;;;;;;5008662;28;20462;-58
2023/09/03 03:48:29;;;;;;;6.13;5.63;;;21.20;99.90;;;;;;5006030;28;20466;-58
2023/09/03 03:50:56;;;;;;;6.30;5.80;;;21.20;99.90;;;;;;5004374;28;20596;-61
2023/09/03 03:53:23;;;;;;;7.70;7.00;;;21.20;99.90;;;;;;5003940;28;20467;-58
2023/09/03 03:55:57;;;;;;;6.80;6.20;;;21.20;99.90;;;;;;5005400;28;20459;-61
2023/09/03 03:58:24;;;;;;;5.80;5.30;;;21.20;99.90;;;;;;5004697;28;20469;-61
2023/09/03 04:00:50;;;;;;;6.60;6.10;;;21.20;99.90;;;;;;5007382;28;20493;-60
2023/09/03 04:03:18;;;;;;;6.40;5.90;;;21.20;99.90;;;;;;5007106;28;21124;-60
2023/09/03 04:05:45;;;;;;;6.30;5.80;;;21.20;99.90;;;;;;5005744;28;20477;-60
2023/09/03 04:08:12;;;;;;;6.60;6.10;;;21.20;99.90;;;;;;5014848;28;20494;-60
2023/09/03 04:10:39;;;;;;;6.40;5.90;;;21.20;99.90;;;;;;5015398;28;20476;-57
2023/09/03 04:13:05;;;;;;;6.20;5.70;;;21.20;99.90;;;;;;5014391;28;20455;-58
2023/09/03 04:15:32;;;;;;;6.83;6.23;;;21.20;99.90;;;;;;5011928;28;20807;-60
2023/09/03 04:17:58;;;;;;;6.10;5.60;;;21.20;99.90;;;;;;5016305;28;20857;-58
2023/09/03 04:20:27;;;;;;;6.00;5.50;;;21.20;99.90;;;;;;5012592;28;20465;-62
2023/09/03 04:22:53;;;;;;;6.03;5.60;;;21.20;99.90;;;;;;5011277;28;21011;-60
2023/09/03 04:25:20;;;;;;;5.50;5.10;;;21.20;99.90;;;;;;5014273;28;20553;-61
2023/09/03 04:27:47;;;;;;;6.67;6.10;;;21.20;99.90;;;;;;5015535;28;20450;-59
2023/09/03 04:30:14;;;;;;;6.03;5.53;;;21.20;99.90;;;;;;5015208;28;20548;-58
2023/09/03 04:32:40;;;;;;;5.95;5.45;;;21.20;99.90;;;;;;5017585;28;20220;-62
2023/09/03 04:35:08;;;;;;;7.70;7.10;;;21.20;99.90;;;;;;5010622;28;20658;-61
2023/09/03 04:37:36;;;;;;;6.30;5.80;;;21.20;99.90;;;;;;5013844;28;22047;-60
2023/09/03 04:40:03;;;;;;;6.50;6.00;;;21.20;99.90;;;;;;5014052;28;20800;-61
2023/09/03 04:42:29;;;;;;;6.73;6.13;;;21.20;99.90;;;;;;5015116;28;21048;-61
2023/09/03 04:44:56;;;;;;;6.10;5.60;;;21.20;99.90;;;;;;5012316;28;20458;-61
2023/09/03 04:47:23;;;;;;;6.50;5.90;;;21.20;99.90;;;;;;5014502;28;20209;-59
2023/09/03 04:49:49;;;;;;;6.10;5.60;;;21.20;99.90;;;;;;5012046;28;20203;-61
2023/09/03 04:52:16;;;;;;;5.78;5.38;;;21.20;99.90;;;;;;5014845;28;20928;-57
2023/09/03 04:54:44;;;;;;;5.70;5.20;;;21.10;99.90;;;;;;5011677;28;20209;-61
2023/09/03 04:57:11;;;;;;;6.53;5.93;;;21.10;99.90;;;;;;5013905;28;20510;-59
2023/09/03 04:59:38;;;;;;;6.97;6.45;;;21.10;99.90;;;;;;5013452;28;20823;-58
2023/09/03 05:02:05;;;;;;;6.28;5.88;;;21.10;99.90;;;;;;5010105;28;20228;-59
2023/09/03 05:04:33;;;;;;;6.00;5.50;;;21.10;99.90;;;;;;5005199;28;20192;-61
2023/09/03 05:07:00;;;;;;;6.38;5.88;;;21.10;99.90;;;;;;5006145;28;20330;-60
2023/09/03 05:09:26;;;;;;;6.47;5.93;;;21.10;99.90;;;;;;5008655;28;20655;-61
2023/09/03 05:11:54;;;;;;;7.00;6.32;;;21.10;99.90;;;;;;5010471;28;20231;-59
2023/09/03 05:14:21;;;;;;;6.20;5.70;;;21.10;99.90;;;;;;5012059;28;20187;-60
2023/09/03 05:16:48;;;;;;;6.75;6.10;;;21.10;99.90;;;;;;5005913;28;20247;-60
2023/09/03 05:19:15;;;;;;;6.50;5.90;;;21.10;99.90;;;;;;5008242;28;20485;-59
2023/09/03 05:21:42;;;;;;;6.40;5.87;;;21.10;99.90;;;;;;5004952;28;20306;-61
2023/09/03 05:24:10;;;;;;;6.10;5.60;;;21.10;99.90;;;;;;5007790;28;20463;-61
2023/09/03 05:26:36;;;;;;;6.40;5.90;;;21.10;99.90;;;;;;5008968;28;20474;-60
2023/09/03 05:29:04;;;;;;;6.43;5.82;;;21.10;99.90;;;;;;5005845;28;20207;-60
2023/09/03 05:31:31;;;;;;;5.87;5.37;;;21.10;99.90;;;;;;5010811;28;20657;-57
2023/09/03 05:33:59;;;;;;;7.23;6.63;;;21.10;99.90;;;;;;5011062;28;20457;-56
2023/09/03 05:36:26;;;;;;;4.80;4.45;;;21.10;99.90;;;;;;5014044;28;20785;-61
2023/09/03 05:38:53;;;;;;;5.85;5.35;;;21.10;99.90;;;;;;5002555;28;20208;-60
2023/09/03 05:41:20;;;;;;;5.40;5.00;;;21.10;99.90;;;;;;5008682;28;20215;-60
2023/09/03 05:43:46;;;;;;;6.10;5.60;;;21.10;99.90;;;;;;5010843;28;20201;-56
2023/09/03 05:46:14;;;;;;;5.95;5.45;;;21.10;99.90;;;;;;5015174;28;20192;-61
2023/09/03 05:48:41;;;;;;;6.53;6.03;;;21.10;99.90;;;;;;5011118;28;20188;-62
2023/09/03 05:51:08;;;;;;;6.05;5.55;;;21.10;99.90;;;;;;5002533;28;20210;-61
2023/09/03 05:53:35;;;;;;;5.70;5.20;;;21.10;99.90;;;;;;5003665;28;20540;-57
2023/09/03 05:56:06;;;;;;;5.70;5.20;;;21.10;99.90;;;;;;5001923;28;20732;-57
2023/09/03 05:58:33;;;;;;;8.30;5.72;;;21.10;99.90;;;;;;5006374;28;20459;-59
2023/09/03 06:01:03;;;;;;;5.37;4.97;;;21.10;99.90;;;;;;5003720;28;20582;-57
2023/09/03 06:03:31;;;;;;;6.27;5.77;;;21.10;99.90;;;;;;5006766;28;20453;-58
2023/09/03 06:06:02;;;;;;;6.97;5.80;;;21.10;99.90;;;;;;5003858;28;21029;-59
2023/09/03 06:08:28;;;;;;;6.18;5.68;;;21.10;99.90;;;;;;5004416;28;20463;-59
2023/09/03 06:10:56;;;;;;;6.27;5.73;;;21.10;99.90;;;;;;5004926;28;20217;-59
2023/09/03 06:13:23;;;;;;;5.47;5.07;;;21.10;99.90;;;;;;5004582;28;20501;-58
2023/09/03 06:15:50;;;;;;;10.15;9.25;;;21.10;99.90;;;;;;5006070;28;20451;-55
2023/09/03 06:18:16;;;;;;;11.47;10.47;;;21.10;99.90;;;;;;5015344;28;20211;-55
2023/09/03 06:20:44;;;;;;;8.80;8.10;;;21.10;99.90;;;;;;5009492;28;20467;-54
2023/09/03 06:23:15;;;;;;;8.30;7.60;;;21.00;99.90;;;;;;5020086;28;20689;-58
2023/09/03 06:25:42;;;;;;;9.17;8.30;;;21.00;99.90;;;;;;5018298;28;20469;-56
2023/09/03 06:28:09;;;;;;;7.03;6.43;;;21.00;99.90;;;;;;5013556;28;20452;-60
2023/09/03 06:30:36;;;;;;;6.85;6.25;;;21.00;99.90;;;;;;5017676;28;20192;-58
2023/09/03 06:33:03;;;;;;;6.82;5.30;;;21.00;99.90;;;;;;5017948;28;20687;-57
2023/09/03 06:35:30;;;;;;;6.90;6.30;;;21.00;99.90;;;;;;5014305;28;20552;-56
2023/09/03 06:37:59;;;;;;;6.83;6.27;;;21.00;99.90;;;;;;5018496;28;20473;-58
2023/09/03 06:40:26;;;;;;;6.53;5.93;;;21.00;99.90;;;;;;5018278;28;21382;-59
2023/09/03 06:42:53;;;;;;;6.33;5.83;;;21.00;99.90;;;;;;5017902;28;20817;-57
2023/09/03 06:45:20;;;;;;;6.13;5.57;;;21.10;99.90;;;;;;5015811;28;20474;-58
2023/09/03 06:47:47;;;;;;;6.50;6.00;;;21.00;99.90;;;;;;5016600;28;20849;-54
2023/09/03 06:50:14;;;;;;;6.10;5.50;;;21.00;99.90;;;;;;5016739;28;20208;-56
2023/09/03 06:52:42;;;;;;;5.90;5.40;;;21.00;99.90;;;;;;5016740;28;20473;-58
2023/09/03 06:55:10;;;;;;;6.43;5.80;;;21.10;99.90;;;;;;5017793;28;20787;-56
2023/09/03 06:57:37;;;;;;;6.13;5.63;;;21.00;99.90;;;;;;5013701;28;20464;-59
2023/09/03 07:00:06;;;;;;;5.68;5.18;;;21.00;99.90;;;;;;5017730;28;20207;-55
2023/09/03 07:02:33;;;;;;;6.77;6.17;;;21.00;99.90;;;;;;5018856;28;20300;-56
2023/09/03 07:05:00;;;;;;;6.10;5.30;;;21.00;99.90;;;;;;5014343;28;20464;-56
2023/09/03 07:07:27;;;;;;;5.37;4.97;;;21.00;99.90;;;;;;5009884;28;20554;-54
2023/09/03 07:09:54;;;;;;;5.20;4.80;;;21.00;99.90;;;;;;5018706;28;20447;-56
2023/09/03 07:12:23;;;;;;;6.03;5.53;;;21.00;99.90;;;;;;5012255;28;20803;-56
2023/09/03 07:14:50;;;;;;;5.87;5.37;;;21.00;99.90;;;;;;5011419;28;20465;-56
2023/09/03 07:17:17;;;;;;;5.90;5.47;;;21.00;99.90;;;;;;5015851;28;20472;-60
2023/09/03 07:19:43;;;;;;;5.25;4.85;;;21.00;99.90;;;;;;5016692;28;20470;-58
2023/09/03 07:22:11;;;;;;;5.60;5.10;;;21.00;99.90;;;;;;5011453;28;20238;-57
2023/09/03 07:24:37;;;;;;;5.17;4.67;;;21.00;99.90;;;;;;5018488;28;20458;-56
2023/09/03 07:27:05;;;;;;;5.90;5.40;;;21.00;99.90;;;;;;5015479;28;20459;-58
2023/09/03 07:29:33;;;;;;;5.50;5.00;;;21.00;99.90;;;;;;5016680;28;20464;-57
2023/09/03 07:31:59;;;;;;;5.50;5.10;;;21.10;99.90;;;;;;5018475;28;20468;-55
2023/09/03 07:34:26;;;;;;;6.10;5.60;;;21.00;99.90;;;;;;5014406;28;20685;-57
2023/09/03 07:36:53;;;;;;;5.97;4.57;;;21.00;99.90;;;;;;5008200;28;20648;-59
2023/09/03 07:39:20;;;;;;;4.38;4.07;;;21.00;99.90;;;;;;5010017;28;20472;-58
2023/09/03 07:41:47;;;;;;;5.10;4.70;;;21.00;99.90;;;;;;5008499;28;20199;-59
2023/09/03 07:44:14;;;;;;;4.90;4.40;;;21.00;99.90;;;;;;5008259;28;20466;-58
2023/09/03 07:46:42;;;;;;;5.10;4.67;;;21.10;99.90;;;;;;5005529;28;20474;-58
2023/09/03 07:49:08;;;;;;;5.10;4.70;;;21.00;99.90;;;;;;5011882;28;20460;-58
2023/09/03 07:51:35;;;;;;;5.10;4.70;;;21.00;99.90;;;;;;5010295;28;20458;-58
2023/09/03 07:54:02;;;;;;;5.55;5.05;;;21.00;99.90;;;;;;5011422;28;20470;-60
2023/09/03 07:56:30;;;;;;;5.53;5.10;;;21.00;99.90;;;;;;5009699;28;20202;-55
2023/09/03 07:58:57;;;;;;;5.03;4.57;;;21.00;99.90;;;;;;5006102;28;20456;-59
2023/09/03 08:01:24;;;;;;;4.80;4.40;;;21.00;99.90;;;;;;5013014;28;20207;-58
2023/09/03 08:03:52;;;;;;;5.10;4.60;;;21.00;99.90;;;;;;5008949;28;20479;-58
2023/09/03 08:06:19;;;;;;;5.30;4.87;;;21.00;99.90;;;;;;5012346;28;20460;-52
2023/09/03 08:08:53;;;;;;;4.82;4.43;;;21.00;99.90;;;;;;5006516;28;20450;-55
2023/09/03 08:11:20;;;;;;;6.82;5.05;;;21.00;99.90;;;;;;5012506;28;20870;-54
2023/09/03 08:13:46;;;;;;;5.07;4.60;;;21.00;99.90;;;;;;5008259;28;20204;-58
2023/09/03 08:16:13;;;;;;;5.20;4.80;;;21.00;99.90;;;;;;5008782;28;20192;-59
2023/09/03 08:18:40;;;;;;;5.00;4.57;;;21.00;99.90;;;;;;5004539;28;20961;-56
2023/09/03 08:21:08;;;;;;;4.43;4.03;;;21.00;99.90;;;;;;5004188;28;20459;-60
2023/09/03 08:23:34;;;;;;;5.85;5.22;;;21.00;99.90;;;;;;5010497;28;21010;-57
2023/09/03 08:26:01;;;;;;;4.63;4.23;;;21.10;99.90;;;;;;5004979;28;20200;-56
2023/09/03 08:28:28;;;;;;;5.30;4.80;;;21.00;99.90;;;;;;5007354;28;20466;-59
2023/09/03 08:30:55;;;;;;;6.40;5.90;;;21.00;99.90;;;;;;4998498;28;20964;-57
2023/09/03 08:33:21;;;;;;;5.47;4.97;;;21.00;99.90;;;;;;4971876;28;20878;-57
2023/09/03 08:35:48;;;;;;;5.07;4.67;;;21.10;99.90;;;;;;4994905;28;20577;-60
2023/09/03 08:38:16;;;;;;;5.63;5.13;;;21.00;99.90;;;;;;5011020;28;20461;-55
2023/09/03 08:40:44;;;;;;;6.00;5.50;;;21.00;99.90;;;;;;5016102;28;20215;-56
2023/09/03 08:43:12;;;;;;;5.53;5.13;;;21.10;99.90;;;;;;5006865;28;20518;-57
2023/09/03 08:45:44;;;;;;;6.60;5.97;;;21.00;99.90;;;;;;5004785;28;20467;-55
2023/09/03 08:48:11;;;;;;;5.13;4.63;;;21.00;99.90;;;;;;5004467;28;20451;-60
2023/09/03 08:50:39;;;;;;;5.40;4.90;;;21.00;99.90;;;;;;5003358;28;20338;-60
2023/09/03 08:53:08;;;;;;;5.00;4.60;;;21.00;99.90;;;;;;5000042;28;20942;-58
2023/09/03 08:55:36;;;;;;;6.18;5.68;;;21.00;99.90;;;;;;5004010;28;20482;-56
2023/09/03 08:58:03;;;;;;;5.20;4.80;;;21.00;99.90;;;;;;5002448;28;20211;-60
2023/09/03 09:00:30;;;;;;;5.17;4.77;;;21.00;99.90;;;;;;5005619;28;20490;-53
2023/09/03 09:03:00;;;;;;;6.10;5.50;;;21.00;99.90;;;;;;5007282;28;20478;-59
2023/09/03 09:05:28;;;;;;;5.17;4.77;;;21.00;99.90;;;;;;5006763;28;20805;-59
2023/09/03 09:07:55;;;;;;;4.60;4.20;;;21.00;99.90;;;;;;5003281;28;20918;-58
2023/09/03 09:10:27;;;;;;;5.17;4.67;;;21.00;99.90;;;;;;5007172;28;20206;-56
2023/09/03 09:13:04;;;;;;;5.23;4.80;;;21.00;99.90;;;;;;4999483;28;20460;-58
2023/09/03 09:15:30;;;;;;;5.00;4.43;;;21.00;99.90;;;;;;5006358;28;20461;-57
2023/09/03 09:17:57;;;;;;;5.50;5.00;;;21.00;99.90;;;;;;5005601;28;20470;-56
2023/09/03 09:20:24;;;;;;;4.47;4.03;;;21.00;99.90;;;;;;5010801;28;20204;-54
2023/09/03 09:22:50;;;;;;;3.72;3.40;;;21.00;99.90;;;;;;5005188;28;20486;-57
2023/09/03 09:25:22;;;;;;;5.40;4.60;;;21.00;99.90;;;;;;5007580;28;20204;-53
2023/09/03 09:27:49;;;;;;;5.30;4.70;;;21.10;99.90;;;;;;5008663;28;20303;-56
2023/09/03 09:30:21;;;;;;;4.43;4.10;;;21.00;99.90;;;;;;5006792;28;20461;-59
2023/09/03 09:32:48;;;;;;;4.90;4.50;;;21.00;99.90;;;;;;5007641;28;20467;-57
2023/09/03 09:35:24;;;;;;;4.50;4.10;;;21.00;99.90;;;;;;5019514;28;20509;-54
2023/09/03 09:37:51;;;;;;;5.40;4.47;;;21.00;99.90;;;;;;5009266;28;20559;-52
2023/09/03 09:40:27;;;;;;;6.53;4.97;;;21.00;99.90;;;;;;5001624;28;21068;-58
2023/09/03 09:42:55;;;;;;;4.73;4.33;;;21.00;99.90;;;;;;5005392;28;20560;-59
2023/09/03 09:45:23;;;;;;;4.80;4.40;;;21.00;99.90;;;;;;5017285;28;20454;-59
2023/09/03 09:48:03;;;;;;;5.30;4.90;;;21.00;99.90;;;;;;5007380;28;20965;-57
2023/09/03 09:50:33;;;;;;;4.60;4.20;;;21.00;99.90;;;;;;5013073;28;20537;-57
2023/09/03 09:52:59;;;;;;;4.63;4.20;;;21.00;99.90;;;;;;5005296;28;20466;-59
2023/09/03 09:55:27;;;;;;;4.60;4.20;;;21.00;99.90;;;;;;5006411;28;20468;-56
2023/09/03 09:57:54;;;;;;;3.97;3.67;;;21.00;99.90;;;;;;5002374;28;20562;-57
2023/09/03 10:00:34;;;;;;;6.10;3.97;;;21.00;99.90;;;;;;5009102;28;20461;-54
2023/09/03 10:03:01;;;;;;;4.90;4.50;;;21.00;99.90;;;;;;5010657;28;20997;-60
2023/09/03 10:05:28;;;;;;;4.90;4.07;;;21.10;99.90;;;;;;5009481;28;20466;-57
2023/09/03 10:07:56;;;;;;;6.23;4.87;;;21.10;99.90;;;;;;5011636;28;20471;-56
2023/09/03 10:10:22;;;;;;;4.95;4.55;;;21.10;99.90;;;;;;5010282;28;20957;-57
2023/09/03 10:12:49;;;;;;;6.23;4.60;;;21.10;99.90;;;;;;5015732;28;20245;-54
2023/09/03 10:15:16;;;;;;;10.02;4.65;;;21.10;99.90;;;;;;5012284;28;20463;-58
2023/09/03 10:17:51;;;;;;;4.13;3.83;;;21.10;99.90;;;;;;5009432;28;20239;-61
2023/09/03 10:20:20;;;;;;;10.35;4.32;;;21.10;99.90;;;;;;5010822;28;20463;-56
2023/09/03 10:22:50;;;;;;;4.47;4.07;;;21.10;99.90;;;;;;5008228;28;20230;-54
2023/09/03 10:25:22;;;;;;;7.60;5.10;;;21.10;99.90;;;;;;5010071;28;20201;-59
2023/09/03 10:27:53;;;;;;;9.50;4.07;;;21.10;99.90;;;;;;5008639;28;20199;-54
2023/09/03 10:30:25;;;;;;;3.53;3.30;;;21.10;99.90;;;;;;5019559;28;20814;-55
2023/09/03 10:32:54;;;;;;;4.30;3.90;;;21.10;99.90;;;;;;5004169;28;21078;-55
2023/09/03 10:35:21;;;;;;;4.10;3.80;;;21.10;99.90;;;;;;5005883;28;20202;-57
2023/09/03 10:37:49;;;;;;;5.23;4.13;;;21.10;99.90;;;;;;5001417;28;20464;-59
2023/09/03 10:40:20;;;;;;;5.73;4.10;;;21.10;99.90;;;;;;5004570;28;20593;-56
2023/09/03 10:42:47;;;;;;;4.67;4.27;;;21.10;99.90;;;;;;5004938;28;20466;-57
2023/09/03 10:45:15;;;;;;;5.07;3.83;;;21.10;99.90;;;;;;5006952;28;20456;-55
2023/09/03 10:48:01;;;;;;;8.20;4.60;;;21.10;99.90;;;;;;5014451;28;20455;-58
2023/09/03 10:50:45;;;;;;;5.33;4.07;;;21.10;99.90;;;;;;5012774;28;20539;-54
2023/09/03 10:53:39;;;;;;;5.97;4.63;;;21.10;99.90;;;;;;5006908;28;20977;-54
2023/09/03 10:56:14;;;;;;;5.17;4.13;;;21.10;99.90;;;;;;5005245;28;20591;-53
2023/09/03 10:58:55;;;;;;;5.30;4.80;;;21.10;99.90;;;;;;5004798;28;20454;-57
2023/09/03 11:01:24;;;;;;;8.83;4.00;;;21.10;99.90;;;;;;5007182;28;21827;-55
2023/09/03 11:03:53;;;;;;;4.30;3.80;;;21.10;99.90;;;;;;5015376;28;20485;-50
2023/09/03 11:06:21;;;;;;;4.25;3.42;;;21.10;99.90;;;;;;5013215;28;20450;-52
2023/09/03 11:08:49;;;;;;;5.97;4.23;;;21.10;99.90;;;;;;5016231;28;20379;-51
2023/09/03 11:11:20;;;;;;;5.13;4.27;;;21.20;99.90;;;;;;5011306;28;21822;-55
2023/09/03 11:13:51;;;;;;;4.90;4.37;;;21.10;99.90;;;;;;5018496;28;20462;-50
2023/09/03 11:16:18;;;;;;;5.53;4.10;;;21.20;99.90;;;;;;5010006;28;20906;-52
2023/09/03 11:18:49;;;;;;;4.80;4.30;;;21.20;99.90;;;;;;5013306;28;20478;-54
2023/09/03 11:21:17;;;;;;;4.53;4.13;;;21.20;99.90;;;;;;5013363;28;20493;-53
2023/09/03 11:24:03;;;;;;;5.03;4.50;;;21.20;99.90;;;;;;5014716;28;20489;-56
2023/09/03 11:26:31;;;;;;;5.70;5.10;;;21.20;99.90;;;;;;5013229;28;20454;-55
2023/09/03 11:28:58;;;;;;;4.57;4.10;;;21.20;99.90;;;;;;5015825;28;20465;-57
2023/09/03 11:31:24;;;;;;;9.57;4.70;;;21.20;99.90;;;;;;5016095;28;20822;-54
2023/09/03 11:33:51;;;;;;;9.93;5.53;;;21.20;99.90;;;;;;5015219;28;20458;-54
2023/09/03 11:36:21;;;;;;;11.33;5.20;;;21.20;99.90;;;;;;5008892;28;20993;-54
2023/09/03 11:38:49;;;;;;;7.87;4.83;;;21.20;99.90;;;;;;5014210;28;20469;-56
2023/09/03 11:41:18;;;;;;;9.67;5.50;;;21.20;99.90;;;;;;5010257;28;20554;-53
2023/09/03 11:43:46;;;;;;;6.60;4.43;;;21.20;99.90;;;;;;5012756;28;20481;-58
2023/09/03 11:46:14;;;;;;;10.37;5.67;;;21.20;99.90;;;;;;5014962;28;20869;-55
2023/09/03 11:48:41;;;;;;;12.50;4.90;;;21.20;99.90;;;;;;5017073;28;20525;-55
2023/09/03 11:51:09;;;;;;;11.60;5.03;;;21.20;99.90;;;;;;5009378;28;21060;-56
2023/09/03 11:53:41;;;;;;;7.70;5.63;;;21.20;99.90;;;;;;5008740;28;20471;-55
2023/09/03 11:56:09;;;;;;;5.17;4.37;;;21.20;99.90;;;;;;5006260;28;20810;-51
2023/09/03 11:58:37;;;;;;;11.20;4.83;;;21.20;99.90;;;;;;5015943;28;20849;-51
2023/09/03 12:01:04;;;;;;;13.10;5.80;;;21.20;99.90;;;;;;5010065;28;20516;-55
2023/09/03 12:03:31;;;;;;;9.03;5.07;;;21.20;99.90;;;;;;5014840;28;20478;-56
2023/09/03 12:05:58;;;;;;;15.63;7.33;;;21.30;99.90;;;;;;5009764;28;20466;-57
2023/09/03 12:08:26;;;;;;;18.80;7.13;;;21.30;99.90;;;;;;5012794;28;20472;-60
2023/09/03 12:10:54;;;;;;;14.90;7.97;;;21.30;99.90;;;;;;5011881;28;20465;-58
2023/09/03 12:13:31;;;;;;;20.73;8.30;;;21.30;99.90;;;;;;5010589;28;20461;-56
2023/09/03 12:16:07;;;;;;;20.20;7.83;;;21.30;99.90;;;;;;5007606;28;20469;-54
2023/09/03 12:18:35;;;;;;;25.43;10.93;;;21.30;99.90;;;;;;5013741;28;20482;-55
2023/09/03 12:21:02;;;;;;;20.90;9.00;;;21.30;99.90;;;;;;5006417;28;20485;-55
2023/09/03 12:23:28;;;;;;;26.67;10.20;;;21.30;99.90;;;;;;5007662;28;20802;-56
2023/09/03 12:25:57;;;;;;;19.23;9.83;;;21.30;99.90;;;;;;5007005;28;20462;-56
2023/09/03 12:28:35;;;;;;;26.80;10.10;;;21.30;99.90;;;;;;5009056;28;20814;-57
2023/09/03 12:31:03;;;;;;;19.13;10.33;;;21.30;99.90;;;;;;5010789;28;20491;-57
2023/09/03 12:33:45;;;;;;;17.50;9.40;;;21.30;99.90;;;;;;5012298;28;20554;-56
2023/09/03 12:36:13;;;;;;;20.53;10.50;;;21.30;99.90;;;;;;5005692;28;21004;-61
2023/09/03 12:38:55;;;;;;;17.40;9.83;;;21.30;99.90;;;;;;5009741;28;20879;-58
2023/09/03 12:41:25;;;;;;;31.53;10.63;;;21.30;99.90;;;;;;5004174;28;20551;-58
2023/09/03 12:43:52;;;;;;;26.53;11.20;;;21.30;99.90;;;;;;5004766;28;20559;-60
2023/09/03 12:46:20;;;;;;;24.93;11.30;;;21.30;99.90;;;;;;5002593;28;20447;-60
2023/09/03 12:48:47;;;;;;;23.10;11.80;;;21.30;99.90;;;;;;5004987;28;20461;-60
2023/09/03 12:51:15;;;;;;;21.90;10.87;;;21.30;99.90;;;;;;5001856;28;20466;-60